createdAt,value
2023-05-02T00:01:25.449Z,100.00
2023-05-02T00:03:52.104Z,100.00
2023-05-02T00:06:19.236Z,100.00
2023-05-02T00:08:45.928Z,100.00
2023-05-02T00:11:12.548Z,100.00
2023-05-02T00:13:39.177Z,100.00
2023-05-02T00:16:06.321Z,100.00
2023-05-02T00:18:32.988Z,100.00
2023-05-02T00:20:59.631Z,100.00
2023-05-02T00:23:26.271Z,100.00
2023-05-02T00:25:52.848Z,100.00
2023-05-02T00:28:19.423Z,100.00
2023-05-02T00:30:46.813Z,100.00
2023-05-02T00:33:15.224Z,100.00
2023-05-02T00:35:42.076Z,100.00
2023-05-02T00:38:08.724Z,100.00
2023-05-02T00:40:49.768Z,100.00
2023-05-02T00:43:19.202Z,100.00
2023-05-02T00:45:46.674Z,100.00
2023-05-02T00:48:14.080Z,100.00
2023-05-02T00:50:43.241Z,100.00
2023-05-02T00:53:10.859Z,100.00
2023-05-02T00:55:37.957Z,100.00
2023-05-02T00:58:14.378Z,100.00
2023-05-02T01:01:02.280Z,100.00
2023-05-02T01:03:47.769Z,100.00
2023-05-02T01:06:36.789Z,100.00
2023-05-02T01:09:40.972Z,100.00
2023-05-02T01:12:20.111Z,100.00
2023-05-02T01:14:52.861Z,100.00
2023-05-02T01:17:20.555Z,100.00
2023-05-02T01:19:54.905Z,100.00
2023-05-02T01:22:24.731Z,100.00
2023-05-02T01:25:20.882Z,100.00
2023-05-02T01:27:56.638Z,100.00
2023-05-02T01:30:27.061Z,100.00
2023-05-02T01:32:55.931Z,100.00
2023-05-02T01:35:24.303Z,100.00
2023-05-02T01:37:53.478Z,100.00
2023-05-02T01:40:22.880Z,100.00
2023-05-02T01:42:51.975Z,100.00
2023-05-02T01:45:21.321Z,100.00
2023-05-02T01:47:48.961Z,100.00
2023-05-02T01:50:20.344Z,100.00
2023-05-02T01:52:49.781Z,100.00
2023-05-02T01:55:18.423Z,100.00
2023-05-02T01:57:47.157Z,100.00
2023-05-02T02:00:17.711Z,100.00
2023-05-02T02:02:46.566Z,100.00
2023-05-02T02:05:14.258Z,100.00
2023-05-02T02:07:40.793Z,100.00
2023-05-02T02:10:07.941Z,100.00
2023-05-02T02:12:43.809Z,100.00
2023-05-02T02:15:21.888Z,100.00
2023-05-02T02:18:01.154Z,100.00
2023-05-02T02:20:32.512Z,100.00
2023-05-02T02:23:03.396Z,100.00
2023-05-02T02:25:30.149Z,100.00
2023-05-02T02:27:57.355Z,100.00
2023-05-02T02:30:24.005Z,100.00
2023-05-02T02:32:50.801Z,100.00
2023-05-02T02:35:17.523Z,100.00
2023-05-02T02:37:57.954Z,100.00
2023-05-02T02:40:37.354Z,100.00
2023-05-02T02:43:15.688Z,100.00
2023-05-02T02:46:03.281Z,100.00
2023-05-02T02:48:34.986Z,100.00
2023-05-02T02:51:07.293Z,100.00
2023-05-02T02:53:45.156Z,100.00
2023-05-02T02:56:16.678Z,100.00
2023-05-02T02:59:29.429Z,100.00
2023-05-02T03:02:10.010Z,100.00
2023-05-02T03:04:42.314Z,100.00
2023-05-02T03:07:09.595Z,100.00
2023-05-02T03:09:46.112Z,100.00
2023-05-02T03:12:13.487Z,100.00
2023-05-02T03:14:40.844Z,100.00
2023-05-02T03:17:12.032Z,100.00
2023-05-02T03:19:38.985Z,100.00
2023-05-02T03:22:06.134Z,100.00
2023-05-02T03:24:32.691Z,100.00
2023-05-02T03:26:59.731Z,100.00
2023-05-02T03:29:26.984Z,100.00
2023-05-02T03:31:53.601Z,100.00
2023-05-02T03:34:22.113Z,100.00
2023-05-02T03:36:48.884Z,100.00
2023-05-02T03:39:15.751Z,100.00
2023-05-02T03:41:43.940Z,100.00
2023-05-02T03:44:10.785Z,100.00
2023-05-02T03:46:37.752Z,100.00
2023-05-02T03:49:04.420Z,100.00
2023-05-02T03:51:30.989Z,100.00
2023-05-02T03:53:58.608Z,100.00
2023-05-02T03:56:25.204Z,100.00
2023-05-02T03:58:51.756Z,100.00
2023-05-02T04:01:18.496Z,100.00
2023-05-02T04:03:45.283Z,100.00
2023-05-02T04:06:13.372Z,100.00
2023-05-02T04:08:40.139Z,100.00
2023-05-02T04:11:07.319Z,100.00
2023-05-02T04:13:33.986Z,100.00
2023-05-02T04:16:00.683Z,100.00
2023-05-02T04:18:27.534Z,100.00
2023-05-02T04:20:55.503Z,100.00
2023-05-02T04:23:22.145Z,100.00
2023-05-02T04:25:53.766Z,100.00
2023-05-02T04:28:23.427Z,100.00
2023-05-02T04:30:50.406Z,100.00
2023-05-02T04:33:18.639Z,100.00
2023-05-02T04:35:45.417Z,100.00
2023-05-02T04:38:12.037Z,100.00
2023-05-02T04:40:38.889Z,100.00
2023-05-02T04:43:05.453Z,100.00
2023-05-02T04:45:32.704Z,100.00
2023-05-02T04:47:59.434Z,100.00
2023-05-02T04:50:28.373Z,100.00
2023-05-02T04:52:55.048Z,100.00
2023-05-02T04:55:21.795Z,100.00
2023-05-02T04:57:48.479Z,100.00
2023-05-02T05:00:15.644Z,100.00
2023-05-02T05:02:43.439Z,100.00
2023-05-02T05:05:10.310Z,100.00
2023-05-02T05:07:36.954Z,100.00
2023-05-02T05:10:03.996Z,100.00
2023-05-02T05:12:30.613Z,100.00
2023-05-02T05:14:57.503Z,100.00
2023-05-02T05:17:24.174Z,100.00
2023-05-02T05:19:50.874Z,100.00
2023-05-02T05:22:17.399Z,100.00
2023-05-02T05:24:51.867Z,100.00
2023-05-02T05:27:18.526Z,100.00
2023-05-02T05:29:45.203Z,100.00
2023-05-02T05:32:11.839Z,100.00
2023-05-02T05:34:38.591Z,100.00
2023-05-02T05:37:05.239Z,100.00
2023-05-02T05:39:32.781Z,100.00
2023-05-02T05:41:59.961Z,100.00
2023-05-02T05:44:26.696Z,100.00
2023-05-02T05:46:53.349Z,100.00
2023-05-02T05:49:19.934Z,100.00
2023-05-02T05:51:47.812Z,100.00
2023-05-02T05:54:14.454Z,100.00
2023-05-02T05:56:41.143Z,100.00
2023-05-02T05:59:08.077Z,100.00
2023-05-02T06:01:36.012Z,100.00
2023-05-02T06:04:06.784Z,100.00
2023-05-02T06:06:33.776Z,100.00
2023-05-02T06:09:00.980Z,100.00
2023-05-02T06:11:27.803Z,100.00
2023-05-02T06:13:54.466Z,100.00
2023-05-02T06:16:21.252Z,100.00
2023-05-02T06:18:48.013Z,100.00
2023-05-02T06:21:14.625Z,100.00
2023-05-02T06:23:41.262Z,100.00
2023-05-02T06:26:07.916Z,100.00
2023-05-02T06:28:34.582Z,100.00
2023-05-02T06:31:03.329Z,100.00
2023-05-02T06:33:30.912Z,100.00
2023-05-02T06:35:59.220Z,100.00
2023-05-02T06:38:27.297Z,100.00
2023-05-02T06:40:54.025Z,100.00
2023-05-02T06:43:20.698Z,100.00
2023-05-02T06:45:47.298Z,100.00
2023-05-02T06:48:14.151Z,100.00
2023-05-02T06:50:40.851Z,100.00
2023-05-02T06:53:07.442Z,100.00
2023-05-02T06:55:34.048Z,100.00
2023-05-02T06:58:00.978Z,99.80
2023-05-02T07:00:27.556Z,100.00
2023-05-02T07:02:54.456Z,100.00
2023-05-02T07:05:21.351Z,99.99
2023-05-02T07:07:47.886Z,99.18
2023-05-02T07:10:14.440Z,98.78
2023-05-02T07:12:41.220Z,97.03
2023-05-02T07:15:08.282Z,96.29
2023-05-02T07:17:34.941Z,92.15
2023-05-02T07:20:02.366Z,91.88
2023-05-02T07:22:29.232Z,90.93
2023-05-02T07:25:03.462Z,90.86
2023-05-02T07:27:30.301Z,88.57
2023-05-02T07:29:56.855Z,86.21
2023-05-02T07:32:26.111Z,86.00
2023-05-02T07:34:57.153Z,86.28
2023-05-02T07:37:24.029Z,87.06
2023-05-02T07:39:50.738Z,83.72
2023-05-02T07:42:17.350Z,83.60
2023-05-02T07:44:43.996Z,84.19
2023-05-02T07:47:10.852Z,84.47
2023-05-02T07:49:37.683Z,85.34
2023-05-02T07:52:04.802Z,84.30
2023-05-02T07:54:31.610Z,83.32
2023-05-02T07:57:02.423Z,83.21
2023-05-02T07:59:31.215Z,83.25
2023-05-02T08:01:58.011Z,81.41
2023-05-02T08:04:25.103Z,81.05
2023-05-02T08:06:51.946Z,78.93
2023-05-02T08:09:18.585Z,77.80
2023-05-02T08:11:45.375Z,79.17
2023-05-02T08:14:11.911Z,78.79
2023-05-02T08:16:38.975Z,78.00
2023-05-02T08:19:05.887Z,75.01
2023-05-02T08:21:32.775Z,74.79
2023-05-02T08:23:59.906Z,75.71
2023-05-02T08:26:27.446Z,76.13
2023-05-02T08:28:55.149Z,76.15
2023-05-02T08:31:22.129Z,76.58
2023-05-02T08:33:48.740Z,73.46
2023-05-02T08:36:17.048Z,73.82
2023-05-02T08:38:44.871Z,70.16
2023-05-02T08:41:20.635Z,67.53
2023-05-02T08:43:47.685Z,65.81
2023-05-02T08:46:17.469Z,67.69
2023-05-02T08:48:48.287Z,69.57
2023-05-02T08:51:16.986Z,68.49
2023-05-02T08:53:44.175Z,64.73
2023-05-02T08:56:12.744Z,66.35
2023-05-02T08:58:40.779Z,69.15
2023-05-02T09:01:19.243Z,71.39
2023-05-02T09:03:47.721Z,68.71
2023-05-02T09:06:19.552Z,66.09
2023-05-02T09:08:49.481Z,67.08
2023-05-02T09:11:17.126Z,63.93
2023-05-02T09:13:48.801Z,61.83
2023-05-02T09:16:18.102Z,60.58
2023-05-02T09:18:53.057Z,59.43
2023-05-02T09:21:22.080Z,65.59
2023-05-02T09:23:50.859Z,65.14
2023-05-02T09:26:35.303Z,61.88
2023-05-02T09:29:04.315Z,58.52
2023-05-02T09:34:14.136Z,55.84
2023-05-02T09:36:45.662Z,56.40
2023-05-02T09:39:17.484Z,57.58
2023-05-02T09:41:46.896Z,56.39
2023-05-02T09:44:20.471Z,52.64
2023-05-02T09:46:49.159Z,54.18
2023-05-02T09:49:19.618Z,53.48
2023-05-02T09:51:47.799Z,58.27
2023-05-02T09:54:36.448Z,56.78
2023-05-02T09:57:03.914Z,60.03
2023-05-02T09:59:30.765Z,64.53
2023-05-02T10:02:03.330Z,60.46
2023-05-02T10:04:32.908Z,62.45
2023-05-02T10:07:00.457Z,64.07
2023-05-02T10:09:29.998Z,61.72
2023-05-02T10:11:56.983Z,63.75
2023-05-02T10:14:27.826Z,64.69
2023-05-02T10:17:12.729Z,66.07
2023-05-02T10:19:44.408Z,70.74
2023-05-02T10:22:12.769Z,75.62
2023-05-02T10:24:40.806Z,77.27
2023-05-02T10:27:08.623Z,78.37
2023-05-02T10:29:36.366Z,83.25
2023-05-02T10:32:04.845Z,81.24
2023-05-02T10:34:33.412Z,78.20
2023-05-02T10:37:02.363Z,76.20
2023-05-02T10:39:30.026Z,71.76
2023-05-02T10:41:59.227Z,57.98
2023-05-02T10:44:40.733Z,54.24
2023-05-02T10:47:24.635Z,51.00
2023-05-02T10:49:51.786Z,56.24
2023-05-02T10:52:38.368Z,58.35
2023-05-02T10:55:19.875Z,47.80
2023-05-02T10:58:02.069Z,40.85
2023-05-02T11:00:33.975Z,37.58
2023-05-02T11:03:01.835Z,36.85
2023-05-02T11:05:28.850Z,42.13
2023-05-02T11:08:19.303Z,47.41
2023-05-02T11:10:47.434Z,51.44
2023-05-02T11:13:14.136Z,56.19
2023-05-02T11:15:41.023Z,64.86
2023-05-02T11:18:10.187Z,64.04
2023-05-02T11:20:39.695Z,65.06
2023-05-02T11:23:15.606Z,63.19
2023-05-02T11:25:44.139Z,65.40
2023-05-02T11:28:40.394Z,60.55
2023-05-02T11:31:27.019Z,60.10
2023-05-02T11:33:57.935Z,51.70
2023-05-02T11:36:32.522Z,47.26
2023-05-02T11:39:00.379Z,45.36
2023-05-02T11:41:43.062Z,49.99
2023-05-02T11:44:10.975Z,55.51
2023-05-02T11:46:39.682Z,61.38
2023-05-02T11:49:09.657Z,65.02
2023-05-02T11:51:37.555Z,65.44
2023-05-02T11:54:04.678Z,63.87
2023-05-02T11:56:31.660Z,63.88
2023-05-02T11:59:03.617Z,60.68
2023-05-02T12:01:30.694Z,60.41
2023-05-02T12:04:04.612Z,61.46
2023-05-02T12:06:31.559Z,63.27
2023-05-02T12:09:14.268Z,57.69
2023-05-02T12:11:41.443Z,56.78
2023-05-02T12:14:08.229Z,50.58
2023-05-02T12:16:35.464Z,47.85
2023-05-02T12:19:02.581Z,49.38
2023-05-02T12:21:30.232Z,50.59
2023-05-02T12:23:57.595Z,53.20
2023-05-02T12:26:27.710Z,54.24
2023-05-02T12:28:55.253Z,59.64
2023-05-02T12:31:22.902Z,62.98
2023-05-02T12:33:51.156Z,61.53
2023-05-02T12:36:19.426Z,59.66
2023-05-02T12:38:55.084Z,57.97
2023-05-02T12:41:43.914Z,55.36
2023-05-02T12:44:10.671Z,52.94
2023-05-02T12:46:37.648Z,53.61
2023-05-02T12:49:06.399Z,54.33
2023-05-02T12:51:34.622Z,55.30
2023-05-02T12:54:01.606Z,55.34
2023-05-02T12:56:32.390Z,56.46
2023-05-02T12:59:05.267Z,48.48
2023-05-02T13:01:34.553Z,47.85
2023-05-02T13:04:01.507Z,53.19
2023-05-02T13:06:28.257Z,58.89
2023-05-02T13:08:54.907Z,61.37
2023-05-02T13:11:21.654Z,61.06
2023-05-02T13:13:48.368Z,62.01
2023-05-02T13:16:15.077Z,63.73
2023-05-02T13:18:42.068Z,64.25
2023-05-02T13:21:08.754Z,67.55
2023-05-02T13:23:35.332Z,55.81
2023-05-02T13:26:01.918Z,49.30
2023-05-02T13:28:30.515Z,47.67
2023-05-02T13:30:57.161Z,51.57
2023-05-02T13:33:23.859Z,55.88
2023-05-02T13:35:50.551Z,52.13
2023-05-02T13:38:17.096Z,48.32
2023-05-02T13:40:43.808Z,46.14
2023-05-02T13:43:10.352Z,47.72
2023-05-02T13:45:37.088Z,49.90
2023-05-02T13:48:03.977Z,51.21
2023-05-02T13:50:30.704Z,51.75
2023-05-02T13:52:57.270Z,54.44
2023-05-02T13:55:23.930Z,52.17
2023-05-02T13:57:50.654Z,57.17
2023-05-02T14:00:17.944Z,62.33
2023-05-02T14:02:47.126Z,69.06
2023-05-02T14:05:14.146Z,70.51
2023-05-02T14:07:40.753Z,74.02
2023-05-02T14:10:07.997Z,73.24
2023-05-02T14:12:34.543Z,75.42
2023-05-02T14:15:01.588Z,71.23
2023-05-02T14:17:28.182Z,73.93
2023-05-02T14:19:54.885Z,71.57
2023-05-02T14:22:21.442Z,69.81
2023-05-02T14:24:48.048Z,68.78
2023-05-02T14:27:18.544Z,67.57
2023-05-02T14:29:48.806Z,66.87
2023-05-02T14:32:15.490Z,67.26
2023-05-02T14:34:42.233Z,67.12
2023-05-02T14:37:09.395Z,68.83
2023-05-02T14:39:36.998Z,72.62
2023-05-02T14:42:04.578Z,72.90
2023-05-02T14:44:31.832Z,70.93
2023-05-02T14:46:58.633Z,71.28
2023-05-02T14:49:25.641Z,68.35
2023-05-02T14:51:52.652Z,66.67
2023-05-02T14:54:20.430Z,64.28
2023-05-02T14:56:48.357Z,65.43
2023-05-02T14:59:14.975Z,60.63
2023-05-02T15:01:41.650Z,53.90
2023-05-02T15:04:08.770Z,48.80
2023-05-02T15:06:36.350Z,39.20
2023-05-02T15:09:03.607Z,33.94
2023-05-02T15:11:30.436Z,34.45
2023-05-02T15:13:59.211Z,37.33
2023-05-02T15:16:27.580Z,40.08
2023-05-02T15:18:54.384Z,42.11
2023-05-02T15:21:21.512Z,44.34
2023-05-02T15:23:48.136Z,44.83
2023-05-02T15:26:14.777Z,39.25
2023-05-02T15:28:41.601Z,32.68
2023-05-02T15:31:08.326Z,30.47
2023-05-02T15:33:34.954Z,30.26
2023-05-02T15:36:01.645Z,34.48
2023-05-02T15:38:28.306Z,39.47
2023-05-02T15:41:00.220Z,42.73
2023-05-02T15:43:27.283Z,39.30
2023-05-02T15:45:56.426Z,35.39
2023-05-02T15:48:24.256Z,40.34
2023-05-02T15:50:52.559Z,38.27
2023-05-02T15:53:22.260Z,35.82
2023-05-02T15:55:50.606Z,36.30
2023-05-02T15:58:17.828Z,35.04
2023-05-02T16:00:45.256Z,32.69
2023-05-02T16:03:15.736Z,30.44
2023-05-02T16:05:42.509Z,29.33
2023-05-02T16:08:09.565Z,32.40
2023-05-02T16:10:36.774Z,33.32
2023-05-02T16:13:03.467Z,37.91
2023-05-02T16:15:30.634Z,42.33
2023-05-02T16:17:57.518Z,43.57
2023-05-02T16:20:26.017Z,44.59
2023-05-02T16:22:52.665Z,47.20
2023-05-02T16:25:19.532Z,48.88
2023-05-02T16:27:46.076Z,50.21
2023-05-02T16:30:13.309Z,52.17
2023-05-02T16:32:40.898Z,56.33
2023-05-02T16:35:10.854Z,52.81
2023-05-02T16:37:37.577Z,60.65
2023-05-02T16:40:06.195Z,61.12
2023-05-02T16:42:33.064Z,61.91
2023-05-02T16:45:00.148Z,61.72
2023-05-02T16:47:28.124Z,61.03
2023-05-02T16:49:56.063Z,59.78
2023-05-02T16:52:23.014Z,61.74
2023-05-02T16:54:49.959Z,58.34
2023-05-02T16:57:19.911Z,59.10
2023-05-02T16:59:51.299Z,58.70
2023-05-02T17:02:21.253Z,61.77
2023-05-02T17:04:49.381Z,62.53
2023-05-02T17:07:16.471Z,65.04
2023-05-02T17:09:44.444Z,63.80
2023-05-02T17:12:12.115Z,64.04
2023-05-02T17:14:41.300Z,63.04
2023-05-02T17:17:08.337Z,64.86
2023-05-02T17:19:36.059Z,65.45
2023-05-02T17:22:04.382Z,68.58
2023-05-02T17:24:31.079Z,70.80
2023-05-02T17:26:57.805Z,70.56
2023-05-02T17:29:25.996Z,72.74
2023-05-02T17:31:52.710Z,71.80
2023-05-02T17:34:19.310Z,77.25
2023-05-02T17:36:46.517Z,75.65
2023-05-02T17:39:13.715Z,73.00
2023-05-02T17:41:40.394Z,73.23
2023-05-02T17:44:07.151Z,70.76
2023-05-02T17:46:34.007Z,72.94
2023-05-02T17:49:01.130Z,71.75
2023-05-02T17:51:28.157Z,72.56
2023-05-02T17:53:55.076Z,73.06
2023-05-02T17:56:21.893Z,72.06
2023-05-02T17:58:48.739Z,71.81
2023-05-02T18:01:15.885Z,74.40
2023-05-02T18:03:42.774Z,75.27
2023-05-02T18:06:09.575Z,75.21
2023-05-02T18:08:36.232Z,76.36
2023-05-02T18:11:03.613Z,77.62
2023-05-02T18:13:30.905Z,78.52
2023-05-02T18:16:04.874Z,80.77
2023-05-02T18:18:33.222Z,82.68
2023-05-02T18:20:59.851Z,83.29
2023-05-02T18:23:26.467Z,82.61
2023-05-02T18:25:53.060Z,82.50
2023-05-02T18:28:19.860Z,82.21
2023-05-02T18:30:46.759Z,88.54
2023-05-02T18:33:13.442Z,83.79
2023-05-02T18:35:46.903Z,84.26
2023-05-02T18:38:13.653Z,85.41
2023-05-02T18:40:40.458Z,85.99
2023-05-02T18:43:07.044Z,85.18
2023-05-02T18:45:34.978Z,82.91
2023-05-02T18:48:03.126Z,83.88
2023-05-02T18:50:29.769Z,84.46
2023-05-02T18:52:56.447Z,83.93
2023-05-02T18:55:25.277Z,85.92
2023-05-02T18:57:52.090Z,86.01
2023-05-02T19:00:20.484Z,85.54
2023-05-02T19:02:47.936Z,85.51
2023-05-02T19:05:15.219Z,85.51
2023-05-02T19:07:42.508Z,86.75
2023-05-02T19:10:11.229Z,87.65
2023-05-02T19:12:38.272Z,88.94
2023-05-02T19:15:06.840Z,88.90
2023-05-02T19:17:34.062Z,89.80
2023-05-02T19:20:00.755Z,92.61
2023-05-02T19:22:27.936Z,92.67
2023-05-02T19:24:54.681Z,92.59
2023-05-02T19:27:21.270Z,92.81
2023-05-02T19:29:47.891Z,94.41
2023-05-02T19:32:15.027Z,93.34
2023-05-02T19:34:41.738Z,94.42
2023-05-02T19:37:08.490Z,94.05
2023-05-02T19:39:37.442Z,95.12
2023-05-02T19:42:04.468Z,96.05
2023-05-02T19:44:31.082Z,96.04
2023-05-02T19:46:57.646Z,98.51
2023-05-02T19:49:24.193Z,99.51
2023-05-02T19:51:50.820Z,98.36
2023-05-02T19:54:17.394Z,98.73
2023-05-02T19:56:44.117Z,99.58
2023-05-02T19:59:10.662Z,100.00
2023-05-02T20:01:37.531Z,99.76
2023-05-02T20:04:04.322Z,99.35
2023-05-02T20:06:32.193Z,100.00
2023-05-02T20:08:58.973Z,100.00
2023-05-02T20:11:26.283Z,100.00
2023-05-02T20:13:54.211Z,100.00
2023-05-02T20:16:21.343Z,100.00
2023-05-02T20:18:48.377Z,100.00
2023-05-02T20:21:15.118Z,100.00
2023-05-02T20:23:43.659Z,100.00
2023-05-02T20:26:11.718Z,100.00
2023-05-02T20:28:38.246Z,100.00
2023-05-02T20:31:05.027Z,100.00
2023-05-02T20:33:43.544Z,100.00
2023-05-02T20:36:11.249Z,100.00
2023-05-02T20:38:42.672Z,100.00
2023-05-02T20:41:12.926Z,100.00
2023-05-02T20:43:40.535Z,100.00
2023-05-02T20:46:16.601Z,100.00
2023-05-02T20:48:43.367Z,100.00
2023-05-02T20:51:10.036Z,100.00
2023-05-02T20:53:37.739Z,100.00
2023-05-02T20:56:05.074Z,100.00
2023-05-02T20:58:31.766Z,100.00
2023-05-02T21:00:58.814Z,100.00
2023-05-02T21:03:27.464Z,100.00
2023-05-02T21:05:55.976Z,100.00
2023-05-02T21:08:23.184Z,100.00
2023-05-02T21:10:50.036Z,100.00
2023-05-02T21:13:16.577Z,100.00
2023-05-02T21:15:43.334Z,100.00
2023-05-02T21:18:09.979Z,100.00
2023-05-02T21:20:38.344Z,100.00
2023-05-02T21:23:05.026Z,100.00
2023-05-02T21:25:31.704Z,100.00
2023-05-02T21:27:58.257Z,100.00
2023-05-02T21:30:25.154Z,100.00
2023-05-02T21:32:51.821Z,100.00
2023-05-02T21:35:18.461Z,100.00
2023-05-02T21:37:45.073Z,100.00
2023-05-02T21:40:12.336Z,100.00
2023-05-02T21:42:39.043Z,100.00
2023-05-02T21:45:06.665Z,100.00
2023-05-02T21:47:33.347Z,100.00
2023-05-02T21:50:00.369Z,100.00
2023-05-02T21:52:27.411Z,100.00
2023-05-02T21:54:54.314Z,100.00
2023-05-02T21:57:21.394Z,100.00
2023-05-02T21:59:48.338Z,100.00
2023-05-02T22:02:15.037Z,100.00
2023-05-02T22:04:41.661Z,100.00
2023-05-02T22:07:08.211Z,100.00
2023-05-02T22:09:34.757Z,100.00
2023-05-02T22:12:01.430Z,100.00
2023-05-02T22:14:37.597Z,100.00
2023-05-02T22:17:10.671Z,100.00
2023-05-02T22:19:37.716Z,100.00
2023-05-02T22:22:05.605Z,100.00
2023-05-02T22:24:32.237Z,100.00
2023-05-02T22:26:58.818Z,100.00
2023-05-02T22:29:25.364Z,100.00
2023-05-02T22:31:52.406Z,100.00
2023-05-02T22:34:19.365Z,100.00
2023-05-02T22:36:46.345Z,100.00
2023-05-02T22:39:15.761Z,100.00
2023-05-02T22:41:43.092Z,100.00
2023-05-02T22:44:09.824Z,100.00
2023-05-02T22:46:38.422Z,100.00
2023-05-02T22:49:07.827Z,100.00
2023-05-02T22:51:34.455Z,100.00
2023-05-02T22:54:02.082Z,100.00
2023-05-02T22:56:28.669Z,100.00
2023-05-02T22:58:55.239Z,100.00
2023-05-02T23:01:21.966Z,100.00
2023-05-02T23:03:49.514Z,100.00
2023-05-02T23:06:16.916Z,100.00
2023-05-02T23:08:43.516Z,100.00
2023-05-02T23:11:10.159Z,100.00
2023-05-02T23:13:36.848Z,100.00
2023-05-02T23:16:04.418Z,100.00
2023-05-02T23:18:31.106Z,100.00
2023-05-02T23:20:57.857Z,100.00
2023-05-02T23:23:27.225Z,100.00
2023-05-02T23:25:53.907Z,100.00
2023-05-02T23:28:20.619Z,100.00
2023-05-02T23:30:47.758Z,100.00
2023-05-02T23:33:15.267Z,100.00
2023-05-02T23:35:42.063Z,100.00
2023-05-02T23:38:08.692Z,100.00
2023-05-02T23:40:35.685Z,100.00
2023-05-02T23:43:02.353Z,100.00
2023-05-02T23:45:28.969Z,100.00
2023-05-02T23:47:55.990Z,100.00
2023-05-02T23:50:22.633Z,100.00
2023-05-02T23:52:49.176Z,100.00
2023-05-02T23:55:15.878Z,100.00
2023-05-02T23:57:42.745Z,100.00
